createdAt,value
2023-02-23T00:01:30.272Z,99046.59
2023-02-23T00:04:00.243Z,99033.97
2023-02-23T00:06:30.668Z,99037.81
2023-02-23T00:09:01.277Z,99036.19
2023-02-23T00:11:30.205Z,99036.44
2023-02-23T00:14:01.282Z,99033.97
2023-02-23T00:16:29.782Z,99039.75
2023-02-23T00:19:02.516Z,99029.03
2023-02-23T00:21:33.047Z,99032.06
2023-02-23T00:24:04.010Z,99031.78
2023-02-23T00:26:35.293Z,99035.91
2023-02-23T00:29:10.457Z,99030.16
2023-02-23T00:31:39.354Z,99035.66
2023-02-23T00:34:08.011Z,99035.94
2023-02-23T00:36:37.470Z,99029.09
2023-02-23T00:39:19.104Z,99026.59
2023-02-23T00:41:47.879Z,99029.63
2023-02-23T00:44:18.073Z,99020.00
2023-02-23T00:46:49.586Z,99028.25
2023-02-23T00:49:19.218Z,99030.47
2023-02-23T00:51:48.074Z,99026.88
2023-02-23T00:54:18.241Z,99029.09
2023-02-23T00:56:47.522Z,99017.53
2023-02-23T00:59:17.977Z,99029.91
2023-02-23T01:01:46.683Z,99027.44
2023-02-23T01:04:15.473Z,99023.03
2023-02-23T01:06:44.019Z,99026.06
2023-02-23T01:09:21.908Z,99022.75
2023-02-23T01:11:50.332Z,99017.53
2023-02-23T01:14:22.265Z,99020.56
2023-02-23T01:16:50.755Z,99015.63
2023-02-23T01:19:19.225Z,99011.22
2023-02-23T01:21:47.661Z,99007.94
2023-02-23T01:24:16.086Z,99013.44
2023-02-23T01:26:46.918Z,99012.06
2023-02-23T01:29:17.709Z,99003.28
2023-02-23T01:31:51.217Z,99007.94
2023-02-23T01:34:21.790Z,99009.03
2023-02-23T01:36:50.635Z,99004.91
2023-02-23T01:39:22.061Z,99007.13
2023-02-23T01:41:54.223Z,99008.22
2023-02-23T01:45:23.800Z,98995.56
2023-02-23T01:47:57.109Z,98993.13
2023-02-23T01:50:30.636Z,98999.97
2023-02-23T01:52:59.980Z,98999.16
2023-02-23T01:55:30.197Z,99002.72
2023-02-23T01:58:08.411Z,98997.53
2023-02-23T02:00:37.762Z,98988.44
2023-02-23T02:03:15.790Z,98987.63
2023-02-23T02:05:45.632Z,98986.53
2023-02-23T02:08:14.793Z,98990.38
2023-02-23T02:10:46.758Z,98988.72
2023-02-23T02:13:22.138Z,98996.41
2023-02-23T02:16:32.300Z,98995.59
2023-02-23T02:19:53.286Z,98992.84
2023-02-23T02:22:59.215Z,98984.31
2023-02-23T02:25:50.770Z,98984.91
2023-02-23T02:29:09.107Z,98985.97
2023-02-23T02:32:27.715Z,98987.34
2023-02-23T02:35:33.733Z,98992.00
2023-02-23T02:38:27.284Z,98988.19
2023-02-23T02:41:03.934Z,98980.78
2023-02-23T02:43:44.401Z,98987.09
2023-02-23T02:46:18.732Z,98984.91
2023-02-23T02:48:57.852Z,98984.59
2023-02-23T02:51:32.328Z,98978.81
2023-02-23T02:54:11.210Z,98988.72
2023-02-23T02:56:44.301Z,98988.72
2023-02-23T02:59:35.008Z,98982.94
2023-02-23T03:02:21.515Z,98987.34
2023-02-23T03:05:07.805Z,98991.72
2023-02-23T03:08:00.394Z,98995.31
2023-02-23T03:10:59.904Z,98998.59
2023-02-23T03:14:05.172Z,99001.09
2023-02-23T03:17:01.983Z,99001.63
2023-02-23T03:19:53.905Z,99000.28
2023-02-23T03:22:46.492Z,98998.91
2023-02-23T03:25:38.207Z,98996.69
2023-02-23T03:28:32.366Z,98996.13
2023-02-23T03:31:28.567Z,99004.94
2023-02-23T03:34:27.708Z,99000.78
2023-02-23T03:37:23.355Z,99006.03
2023-02-23T03:40:21.658Z,99007.66
2023-02-23T03:43:11.406Z,99001.91
2023-02-23T03:45:59.811Z,99012.59
2023-02-23T03:48:46.617Z,99011.53
2023-02-23T03:51:33.868Z,99001.31
2023-02-23T03:54:27.088Z,99015.34
2023-02-23T03:57:17.876Z,99009.03
2023-02-23T04:00:12.273Z,99007.66
2023-02-23T04:03:02.655Z,99013.97
2023-02-23T04:05:50.139Z,99014.28
2023-02-23T04:08:38.543Z,99018.09
2023-02-23T04:11:35.135Z,99021.44
2023-02-23T04:14:09.273Z,99024.19
2023-02-23T04:16:38.142Z,99014.28
2023-02-23T04:19:08.208Z,99022.50
2023-02-23T04:21:36.645Z,99017.84
2023-02-23T04:24:05.566Z,99019.78
2023-02-23T04:26:33.981Z,99017.03
2023-02-23T04:29:02.382Z,99024.44
2023-02-23T04:31:30.865Z,99019.78
2023-02-23T04:33:59.300Z,99020.84
2023-02-23T04:36:29.069Z,99019.78
2023-02-23T04:38:57.553Z,99020.84
2023-02-23T04:41:25.996Z,99019.22
2023-02-23T04:43:54.433Z,99029.66
2023-02-23T04:46:22.905Z,99029.13
2023-02-23T04:48:51.334Z,99027.47
2023-02-23T04:51:20.034Z,99027.75
2023-02-23T04:53:49.946Z,99022.50
2023-02-23T04:56:18.338Z,99020.88
2023-02-23T04:58:46.715Z,99018.38
2023-02-23T05:01:15.199Z,99028.56
2023-02-23T05:03:43.657Z,99027.75
2023-02-23T05:06:13.258Z,99024.44
2023-02-23T05:08:41.697Z,99018.13
2023-02-23T05:11:11.859Z,99019.22
2023-02-23T05:13:40.484Z,99012.63
2023-02-23T05:16:10.089Z,99017.59
2023-02-23T05:18:38.552Z,99020.59
2023-02-23T05:21:09.345Z,99026.06
2023-02-23T05:23:39.009Z,99025.53
2023-02-23T05:26:12.312Z,99025.00
2023-02-23T05:28:42.892Z,99014.28
2023-02-23T05:31:11.906Z,99027.19
2023-02-23T05:33:42.681Z,99029.09
2023-02-23T05:36:13.174Z,99026.94
2023-02-23T05:38:42.283Z,99030.75
2023-02-23T05:41:14.433Z,99032.13
2023-02-23T05:43:43.150Z,99029.38
2023-02-23T05:46:13.299Z,99034.88
2023-02-23T05:48:41.840Z,99027.72
2023-02-23T05:51:15.047Z,99041.75
2023-02-23T05:53:43.646Z,99044.22
2023-02-23T05:56:18.333Z,99048.63
2023-02-23T05:58:46.853Z,99041.75
2023-02-23T06:01:15.317Z,99047.78
2023-02-23T06:03:43.758Z,99042.84
2023-02-23T06:06:12.376Z,99049.97
2023-02-23T06:08:41.177Z,99053.00
2023-02-23T06:11:09.937Z,99052.72
2023-02-23T06:13:40.403Z,99059.06
2023-02-23T06:16:09.824Z,99059.06
2023-02-23T06:18:38.364Z,99063.72
2023-02-23T06:21:07.487Z,99061.25
2023-02-23T06:23:35.935Z,99068.09
2023-02-23T06:26:04.371Z,99071.66
2023-02-23T06:28:32.927Z,99075.78
2023-02-23T06:31:03.096Z,99073.28
2023-02-23T06:33:31.659Z,99074.34
2023-02-23T06:36:00.101Z,99079.31
2023-02-23T06:38:28.606Z,99073.81
2023-02-23T06:40:57.087Z,99081.22
2023-02-23T06:43:25.546Z,99074.88
2023-02-23T06:45:54.000Z,99086.69
2023-02-23T06:48:23.806Z,99083.09
2023-02-23T06:50:52.548Z,99084.72
2023-02-23T06:53:22.088Z,99084.16
2023-02-23T06:55:50.529Z,99084.72
2023-02-23T06:58:19.025Z,99092.13
2023-02-23T07:00:47.414Z,99086.06
2023-02-23T07:03:15.816Z,99088.81
2023-02-23T07:05:45.698Z,99096.47
2023-02-23T07:08:14.164Z,99089.03
2023-02-23T07:10:42.551Z,99094.50
2023-02-23T07:13:12.957Z,99089.78
2023-02-23T07:15:42.607Z,99096.41
2023-02-23T07:18:11.111Z,99093.66
2023-02-23T07:20:39.559Z,99091.41
2023-02-23T07:23:09.366Z,99097.47
2023-02-23T07:25:37.767Z,99095.25
2023-02-23T07:28:06.435Z,99098.53
2023-02-23T07:30:34.890Z,99100.19
2023-02-23T07:33:03.399Z,99101.56
2023-02-23T07:35:31.891Z,99099.09
2023-02-23T07:38:00.367Z,99098.22
2023-02-23T07:40:30.269Z,99103.97
2023-02-23T07:42:58.710Z,99100.09
2023-02-23T07:45:27.129Z,99097.84
2023-02-23T07:47:55.554Z,99113.50
2023-02-23T07:50:24.067Z,99110.69
2023-02-23T07:52:52.676Z,99101.28
2023-02-23T07:55:22.441Z,99108.13
2023-02-23T07:57:52.275Z,99107.50
2023-02-23T08:00:21.700Z,99109.03
2023-02-23T08:02:50.187Z,99113.34
2023-02-23T08:05:18.760Z,99116.03
2023-02-23T08:07:47.264Z,99111.22
2023-02-23T08:10:15.817Z,99110.91
2023-02-23T08:12:44.605Z,99108.94
2023-02-23T08:15:14.574Z,99115.88
2023-02-23T08:17:43.497Z,99108.72
2023-02-23T08:20:13.088Z,99116.97
2023-02-23T08:22:49.279Z,99111.34
2023-02-23T08:25:19.154Z,99111.47
2023-02-23T08:27:48.167Z,99112.94
2023-02-23T08:30:19.291Z,99109.19
2023-02-23T08:32:48.082Z,99112.28
2023-02-23T08:35:18.778Z,99122.09
2023-02-23T08:37:47.295Z,99120.88
2023-02-23T08:40:18.344Z,99120.69
2023-02-23T08:42:48.694Z,99116.56
2023-02-23T08:45:18.757Z,99116.63
2023-02-23T08:47:47.456Z,99117.81
2023-02-23T08:50:16.332Z,99117.06
2023-02-23T08:52:44.757Z,99112.94
2023-02-23T08:55:13.954Z,99116.22
2023-02-23T08:57:42.445Z,99117.88
2023-02-23T09:00:16.871Z,99118.09
2023-02-23T09:02:48.425Z,99118.34
2023-02-23T09:05:18.086Z,99117.72
2023-02-23T09:07:49.466Z,99114.38
2023-02-23T09:10:20.953Z,99119.03
2023-02-23T09:12:49.457Z,99125.84
2023-02-23T09:15:18.269Z,99123.22
2023-02-23T09:17:48.902Z,99116.53
2023-02-23T09:20:19.029Z,99131.41
2023-02-23T09:22:49.697Z,99119.22
2023-02-23T09:25:22.848Z,99120.03
2023-02-23T09:27:52.954Z,99125.88
2023-02-23T09:30:22.617Z,99121.97
2023-02-23T09:32:53.648Z,99127.75
2023-02-23T09:35:24.867Z,99113.22
2023-02-23T09:37:56.984Z,99122.28
2023-02-23T09:40:29.335Z,99112.50
2023-02-23T09:43:03.974Z,99120.09
2023-02-23T09:45:41.937Z,99113.38
2023-02-23T09:48:21.286Z,99119.88
2023-02-23T09:50:52.715Z,99121.44
2023-02-23T09:53:40.503Z,99115.88
2023-02-23T09:56:17.895Z,99116.63
2023-02-23T09:58:46.447Z,99111.00
2023-02-23T10:01:57.908Z,99119.00
2023-02-23T10:04:32.480Z,99121.69
2023-02-23T10:07:06.539Z,99116.56
2023-02-23T10:09:56.513Z,99120.91
2023-02-23T10:12:33.918Z,99109.09
2023-02-23T10:15:23.897Z,99109.34
2023-02-23T10:18:06.775Z,99115.00
2023-02-23T10:20:47.704Z,99107.84
2023-02-23T10:23:23.175Z,99110.63
2023-02-23T10:25:53.224Z,99110.31
2023-02-23T10:28:23.618Z,99108.66
2023-02-23T10:30:54.126Z,99110.00
2023-02-23T10:33:30.110Z,99104.88
2023-02-23T10:36:13.764Z,99106.03
2023-02-23T10:38:42.781Z,99098.81
2023-02-23T10:41:14.855Z,99095.94
2023-02-23T10:43:43.733Z,99096.78
2023-02-23T10:46:18.657Z,99087.94
2023-02-23T10:48:48.782Z,99089.47
2023-02-23T10:51:25.671Z,99085.28
2023-02-23T10:53:54.154Z,99083.22
2023-02-23T10:56:24.142Z,99082.78
2023-02-23T10:58:55.709Z,99074.03
2023-02-23T11:01:49.177Z,99071.59
2023-02-23T11:04:28.528Z,99069.94
2023-02-23T11:07:16.415Z,99061.81
2023-02-23T11:09:47.855Z,99063.75
2023-02-23T11:12:23.108Z,99062.84
2023-02-23T11:14:53.773Z,99061.19
2023-02-23T11:17:33.291Z,99053.53
2023-02-23T11:20:06.533Z,99060.06
2023-02-23T11:22:41.901Z,99057.09
2023-02-23T11:25:22.091Z,99052.00
2023-02-23T11:27:53.883Z,99045.84
2023-02-23T11:30:25.381Z,99038.66
2023-02-23T11:32:57.050Z,99032.84
2023-02-23T11:35:32.329Z,99032.34
2023-02-23T11:38:23.453Z,99027.53
2023-02-23T11:41:02.498Z,99026.34
2023-02-23T11:43:31.380Z,99019.41
2023-02-23T11:46:03.666Z,99012.91
2023-02-23T11:48:37.784Z,99013.59
2023-02-23T11:51:06.915Z,99008.13
2023-02-23T11:53:40.887Z,99000.06
2023-02-23T11:56:12.640Z,98990.63
2023-02-23T11:58:45.229Z,98989.63
2023-02-23T12:01:17.394Z,98987.09
2023-02-23T12:03:50.692Z,98986.22
2023-02-23T12:06:31.133Z,98977.75
2023-02-23T12:09:13.044Z,98979.50
2023-02-23T12:11:48.704Z,98976.03
2023-02-23T12:14:30.785Z,98977.63
2023-02-23T12:17:05.449Z,98973.88
2023-02-23T12:19:39.161Z,98964.81
2023-02-23T12:22:15.108Z,98969.06
2023-02-23T12:24:50.509Z,98963.25
2023-02-23T12:27:26.990Z,98966.44
2023-02-23T12:30:11.076Z,98966.16
2023-02-23T12:32:51.377Z,98963.63
2023-02-23T12:35:27.055Z,98962.28
2023-02-23T12:38:03.616Z,98958.31
2023-02-23T12:40:38.637Z,98955.41
2023-02-23T12:43:16.035Z,98948.91
2023-02-23T12:45:52.709Z,98948.94
2023-02-23T12:48:34.504Z,98941.22
2023-02-23T12:51:12.592Z,98934.47
2023-02-23T12:53:44.545Z,98930.59
2023-02-23T12:56:42.532Z,98935.53
2023-02-23T12:59:53.354Z,98927.00
2023-02-23T13:02:30.757Z,98926.84
2023-02-23T13:05:26.980Z,98916.53
2023-02-23T13:08:13.882Z,98928.81
2023-02-23T13:10:56.231Z,98924.88
2023-02-23T13:13:35.296Z,98917.84
2023-02-23T13:16:16.826Z,98917.28
2023-02-23T13:18:51.411Z,98916.03
2023-02-23T13:21:27.310Z,98919.56
2023-02-23T13:24:02.535Z,98928.78
2023-02-23T13:26:40.267Z,98922.38
2023-02-23T13:29:26.003Z,98920.66
2023-02-23T13:31:55.021Z,98923.69
2023-02-23T13:34:29.621Z,98915.81
2023-02-23T13:37:00.140Z,98917.63
2023-02-23T13:39:57.434Z,98923.34
2023-02-23T13:42:41.526Z,98921.47
2023-02-23T13:45:32.630Z,98926.13
2023-02-23T13:48:15.509Z,98929.78
2023-02-23T13:50:51.504Z,98925.28
2023-02-23T13:53:42.676Z,98927.13
2023-02-23T13:56:17.053Z,98935.53
2023-02-23T13:58:52.289Z,98935.53
2023-02-23T14:01:31.190Z,98929.56
2023-02-23T14:04:02.978Z,98926.13
2023-02-23T14:06:34.508Z,98929.25
2023-02-23T14:09:11.723Z,98934.34
2023-02-23T14:11:51.403Z,98923.28
2023-02-23T14:14:44.860Z,98932.56
2023-02-23T14:18:00.442Z,98915.25
2023-02-23T14:20:47.711Z,98922.34
2023-02-23T14:23:35.549Z,98916.22
2023-02-23T14:26:34.365Z,98917.94
2023-02-23T14:29:29.670Z,98916.50
2023-02-23T14:32:03.915Z,98915.97
2023-02-23T14:34:57.302Z,98921.34
2023-02-23T14:37:32.123Z,98924.72
2023-02-23T14:40:13.238Z,98914.72
2023-02-23T14:42:43.029Z,98914.72
2023-02-23T14:45:25.744Z,98908.06
2023-02-23T14:48:00.032Z,98907.78
2023-02-23T14:50:33.703Z,98906.38
2023-02-23T14:53:04.173Z,98905.91
2023-02-23T14:55:36.823Z,98905.28
2023-02-23T14:58:23.285Z,98900.25
2023-02-23T15:00:52.166Z,98896.63
2023-02-23T15:03:22.553Z,98901.91
2023-02-23T15:05:57.663Z,98896.03
2023-02-23T15:08:28.414Z,98897.72
2023-02-23T15:11:04.625Z,98901.56
2023-02-23T15:13:39.996Z,98895.56
2023-02-23T15:16:15.441Z,98891.06
2023-02-23T15:19:32.427Z,98893.94
2023-02-23T15:22:06.386Z,98888.75
2023-02-23T15:24:44.063Z,98895.03
2023-02-23T15:27:20.187Z,98892.56
2023-02-23T15:29:49.192Z,98881.00
2023-02-23T15:32:24.913Z,98890.03
2023-02-23T15:34:55.834Z,98880.91
2023-02-23T15:37:36.998Z,98888.47
2023-02-23T15:40:09.732Z,98877.31
2023-02-23T15:42:43.375Z,98886.03
2023-02-23T15:45:20.109Z,98882.75
2023-02-23T15:47:49.813Z,98885.22
2023-02-23T15:50:34.652Z,98882.44
2023-02-23T15:53:14.755Z,98889.97
2023-02-23T15:55:45.420Z,98889.97
2023-02-23T15:58:21.894Z,98885.22
2023-02-23T16:00:57.242Z,98888.81
2023-02-23T16:03:31.648Z,98882.59
2023-02-23T16:06:10.783Z,98882.59
2023-02-23T16:08:58.093Z,98881.75
2023-02-23T16:11:28.202Z,98885.19
2023-02-23T16:13:57.575Z,98885.31
2023-02-23T16:16:27.820Z,98879.91
2023-02-23T16:19:01.899Z,98886.78
2023-02-23T16:21:32.676Z,98884.13
2023-02-23T16:24:10.716Z,98888.19
2023-02-23T16:26:46.281Z,98881.97
2023-02-23T16:29:21.169Z,98884.56
2023-02-23T16:31:59.263Z,98879.66
2023-02-23T16:34:35.985Z,98878.34
2023-02-23T16:37:17.812Z,98883.22
2023-02-23T16:39:48.131Z,98875.88
2023-02-23T16:42:27.760Z,98875.19
2023-02-23T16:44:57.748Z,98884.13
2023-02-23T16:47:37.420Z,98879.88
2023-02-23T16:50:20.054Z,98874.97
2023-02-23T16:52:53.494Z,98879.53
2023-02-23T16:55:27.339Z,98879.34
2023-02-23T16:58:00.152Z,98888.63
2023-02-23T17:00:31.625Z,98883.22
2023-02-23T17:03:02.426Z,98880.25
2023-02-23T17:05:31.453Z,98893.13
2023-02-23T17:08:00.503Z,98891.63
2023-02-23T17:10:35.708Z,98898.13
2023-02-23T17:13:08.583Z,98888.78
2023-02-23T17:15:44.782Z,98888.91
2023-02-23T17:18:17.436Z,98883.50
2023-02-23T17:20:47.557Z,98879.19
2023-02-23T17:23:16.975Z,98879.00
2023-02-23T17:25:49.498Z,98881.09
2023-02-23T17:28:20.406Z,98887.28
2023-02-23T17:30:50.371Z,98891.28
2023-02-23T17:33:20.355Z,98888.34
2023-02-23T17:35:49.883Z,98890.91
2023-02-23T17:38:21.960Z,98894.34
2023-02-23T17:40:55.125Z,98888.59
2023-02-23T17:43:24.720Z,98887.56
2023-02-23T17:45:57.102Z,98885.75
2023-02-23T17:48:29.310Z,98888.00
2023-02-23T17:51:01.256Z,98885.03
2023-02-23T17:53:33.537Z,98889.25
2023-02-23T17:56:05.047Z,98887.91
2023-02-23T17:58:39.454Z,98883.53
2023-02-23T18:01:10.340Z,98883.03
2023-02-23T18:03:43.841Z,98885.28
2023-02-23T18:06:15.975Z,98889.19
2023-02-23T18:08:49.719Z,98886.72
2023-02-23T18:11:20.912Z,98891.78
2023-02-23T18:13:52.521Z,98884.56
2023-02-23T18:16:24.921Z,98891.22
2023-02-23T18:18:58.205Z,98886.00
2023-02-23T18:21:28.622Z,98885.50
2023-02-23T18:23:58.514Z,98888.28
2023-02-23T18:26:30.012Z,98890.22
2023-02-23T18:29:00.451Z,98886.94
2023-02-23T18:31:30.617Z,98887.28
2023-02-23T18:34:02.183Z,98888.72
2023-02-23T18:36:37.440Z,98893.75
2023-02-23T18:39:10.042Z,98884.94
2023-02-23T18:41:42.430Z,98880.00
2023-02-23T18:44:16.147Z,98887.78
2023-02-23T18:46:48.258Z,98882.03
2023-02-23T18:49:21.467Z,98882.34
2023-02-23T18:51:52.457Z,98875.47
2023-02-23T18:54:23.093Z,98880.81
2023-02-23T18:56:56.376Z,98880.28
2023-02-23T18:59:26.662Z,98879.28
2023-02-23T19:01:57.492Z,98879.59
2023-02-23T19:04:31.613Z,98877.94
2023-02-23T19:07:02.139Z,98872.72
2023-02-23T19:09:33.957Z,98871.91
2023-02-23T19:12:08.749Z,98875.00
2023-02-23T19:14:49.241Z,98882.47
2023-02-23T19:17:21.072Z,98880.03
2023-02-23T19:19:51.459Z,98877.25
2023-02-23T19:22:22.215Z,98874.78
2023-02-23T19:24:52.641Z,98878.97
2023-02-23T19:27:25.316Z,98877.34
2023-02-23T19:29:56.331Z,98885.97
2023-02-23T19:32:25.929Z,98889.25
2023-02-23T19:34:56.678Z,98878.47
2023-02-23T19:37:27.675Z,98877.97
2023-02-23T19:39:57.910Z,98875.50
2023-02-23T19:42:31.033Z,98886.91
2023-02-23T19:45:01.442Z,98875.63
2023-02-23T19:47:31.978Z,98880.63
2023-02-23T19:50:01.846Z,98880.13
2023-02-23T19:52:32.786Z,98876.84
2023-02-23T19:55:02.907Z,98877.47
2023-02-23T19:57:35.224Z,98873.03
2023-02-23T20:00:12.894Z,98867.00
2023-02-23T20:02:48.282Z,98875.63
2023-02-23T20:05:20.434Z,98869.56
2023-02-23T20:07:52.196Z,98870.69
2023-02-23T20:10:26.236Z,98864.66
2023-02-23T20:12:58.320Z,98871.31
2023-02-23T20:15:28.264Z,98864.13
2023-02-23T20:18:01.585Z,98870.19
2023-02-23T20:20:32.493Z,98864.66
2023-02-23T20:23:02.507Z,98865.47
2023-02-23T20:25:32.767Z,98869.34
2023-02-23T20:28:08.517Z,98867.50
2023-02-23T20:30:40.265Z,98856.25
2023-02-23T20:33:12.490Z,98864.03
2023-02-23T20:35:42.483Z,98857.16
2023-02-23T20:38:14.783Z,98855.84
2023-02-23T20:40:45.795Z,98852.25
2023-02-23T20:43:18.210Z,98852.56
2023-02-23T20:45:49.014Z,98852.25
2023-02-23T20:48:19.818Z,98845.28
2023-02-23T20:50:54.669Z,98844.16
2023-02-23T20:53:25.464Z,98835.88
2023-02-23T20:55:56.358Z,98837.81
2023-02-23T20:58:30.150Z,98830.63
2023-02-23T21:01:04.101Z,98832.28
2023-02-23T21:03:35.239Z,98835.88
2023-02-23T21:06:05.203Z,98828.19
2023-02-23T21:08:38.043Z,98827.94
2023-02-23T21:11:09.676Z,98825.00
2023-02-23T21:13:40.950Z,98826.75
2023-02-23T21:16:17.407Z,98833.69
2023-02-23T21:18:47.221Z,98819.38
2023-02-23T21:21:17.312Z,98819.88
2023-02-23T21:23:49.378Z,98813.19
2023-02-23T21:26:22.013Z,98812.59
2023-02-23T21:28:53.252Z,98813.09
2023-02-23T21:31:22.513Z,98809.41
2023-02-23T21:33:52.444Z,98805.22
2023-02-23T21:36:22.252Z,98805.44
2023-02-23T21:38:52.430Z,98806.47
2023-02-23T21:41:21.327Z,98805.84
2023-02-23T21:43:53.950Z,98792.53
2023-02-23T21:46:24.263Z,98805.22
2023-02-23T21:48:53.634Z,98810.47
2023-02-23T21:51:23.257Z,98803.78
2023-02-23T21:53:53.479Z,98807.06
2023-02-23T21:56:23.605Z,98802.66
2023-02-23T21:58:56.345Z,98802.66
2023-02-23T22:01:28.083Z,98797.13
2023-02-23T22:03:57.434Z,98799.06
2023-02-23T22:06:29.351Z,98796.09
2023-02-23T22:08:58.347Z,98802.75
2023-02-23T22:11:29.888Z,98797.53
2023-02-23T22:14:01.078Z,98796.22
2023-02-23T22:16:32.809Z,98786.59
2023-02-23T22:19:04.316Z,98789.34
2023-02-23T22:21:34.981Z,98791.28
2023-02-23T22:24:05.575Z,98791.28
2023-02-23T22:26:34.666Z,98786.88
2023-02-23T22:29:05.044Z,98787.19
2023-02-23T22:31:34.262Z,98786.88
2023-02-23T22:34:02.829Z,98776.34
2023-02-23T22:36:31.295Z,98779.91
2023-02-23T22:39:00.546Z,98777.97
2023-02-23T22:41:30.542Z,98782.38
2023-02-23T22:43:59.203Z,98779.63
2023-02-23T22:46:29.162Z,98776.84
2023-02-23T22:48:57.574Z,98774.09
2023-02-23T22:51:26.010Z,98765.47
2023-02-23T22:53:54.462Z,98771.31
2023-02-23T22:56:23.111Z,98767.72
2023-02-23T22:58:54.548Z,98768.84
2023-02-23T23:01:26.709Z,98762.50
2023-02-23T23:03:56.602Z,98762.50
2023-02-23T23:06:25.179Z,98759.75
2023-02-23T23:08:58.223Z,98761.69
2023-02-23T23:11:30.003Z,98757.25
2023-02-23T23:14:02.163Z,98752.88
2023-02-23T23:16:33.473Z,98760.34
2023-02-23T23:19:12.067Z,98754.00
2023-02-23T23:21:43.604Z,98757.38
2023-02-23T23:24:15.267Z,98744.97
2023-02-23T23:26:44.422Z,98749.19
2023-02-23T23:29:15.856Z,98748.97
2023-02-23T23:31:46.599Z,98748.78
2023-02-23T23:34:21.956Z,98740.78
2023-02-23T23:36:53.467Z,98746.31
2023-02-23T23:39:26.109Z,98743.03
2023-02-23T23:41:55.476Z,98735.06
2023-02-23T23:44:29.173Z,98733.75
2023-02-23T23:46:58.353Z,98735.34
2023-02-23T23:49:28.415Z,98738.75
2023-02-23T23:51:57.971Z,98736.00
2023-02-23T23:54:28.862Z,98729.63
2023-02-23T23:56:57.847Z,98723.78
2023-02-23T23:59:27.752Z,98724.63
